Terminal Aerodrome Forecast
Issued by NWS

Home | Current Version | Previous Version | Text Only | Print | Product List | Glossary On
Versions: 1 2 3 4 5 6 7 8 9 10 11 12 13 14 15 16
788
FTUS43 KEAX 210520
TAFMKC
TAF
KMKC 210520Z 2106/2206 01012KT P6SM FEW030 SCT150
     FM220400 06011KT 6SM BR VCSH OVC040=

USA.gov is the U.S. government's official web portal to all federal, state and local government web resources and services.